Time;durP1;ratioP1;P1;durP2;ratioP2;P2;SDS_P1;SDS_P2;PMS_P1;PMS_P2;Temp;Humidity;BMP_temperature;BMP_pressure;BME280_temperature;BME280_humidity;BME280_pressure;Samples;Min_cycle;Max_cycle;Signal;HPM_P1;HPM_P2
2022/07/04 00:00:29;;;;;;;10.20;9.90;;;21.30;99.90;;;;;;5089629;28;20289;-80
2022/07/04 00:02:56;;;;;;;10.23;9.93;;;21.30;99.90;;;;;;5094261;28;20230;-80
2022/07/04 00:05:24;;;;;;;10.10;9.80;;;21.30;99.90;;;;;;5094704;28;20261;-80
2022/07/04 00:07:51;;;;;;;9.88;9.57;;;21.30;99.90;;;;;;5087884;28;20317;-80
2022/07/04 00:10:20;;;;;;;10.07;9.77;;;21.30;99.90;;;;;;5092561;28;20321;-80
2022/07/04 00:12:48;;;;;;;10.07;9.77;;;21.30;99.90;;;;;;5091191;28;20324;-80
2022/07/04 00:15:16;;;;;;;9.63;9.32;;;21.30;99.90;;;;;;5087762;27;20254;-81
2022/07/04 00:17:45;;;;;;;9.80;9.50;;;21.30;99.90;;;;;;5100771;27;20218;-81
2022/07/04 00:20:14;;;;;;;10.10;9.80;;;21.20;99.90;;;;;;5088256;28;20325;-81
2022/07/04 00:22:41;;;;;;;9.95;9.65;;;21.20;99.90;;;;;;5081831;28;20416;-81
2022/07/04 00:25:10;;;;;;;9.77;9.48;;;21.20;99.90;;;;;;5078741;28;20264;-81
2022/07/04 00:27:37;;;;;;;10.00;9.70;;;21.10;99.90;;;;;;5078514;28;20428;-81
2022/07/04 00:30:06;;;;;;;10.27;9.98;;;21.10;99.90;;;;;;5078200;28;20265;-80
2022/07/04 00:32:34;;;;;;;10.10;9.80;;;21.10;99.90;;;;;;5077863;28;20285;-81
2022/07/04 00:35:03;;;;;;;10.00;9.70;;;21.00;99.90;;;;;;5077468;28;20233;-82
2022/07/04 00:37:31;;;;;;;10.00;9.70;;;21.00;99.90;;;;;;5078071;28;20261;-83
2022/07/04 00:39:58;;;;;;;9.70;9.40;;;21.00;99.90;;;;;;5078656;28;20233;-81
2022/07/04 00:42:26;;;;;;;9.68;9.38;;;21.00;99.90;;;;;;5077826;28;20226;-81
2022/07/04 00:44:53;;;;;;;9.70;9.40;;;20.90;99.90;;;;;;5077559;28;20234;-82
2022/07/04 00:47:21;;;;;;;9.70;9.40;;;20.90;99.90;;;;;;5078265;28;20238;-81
2022/07/04 00:49:48;;;;;;;9.63;9.32;;;20.90;99.90;;;;;;5078243;28;20265;-82
2022/07/04 00:52:18;;;;;;;9.90;9.60;;;20.80;99.90;;;;;;5078138;28;20328;-81
2022/07/04 00:54:47;;;;;;;9.90;9.60;;;20.80;99.90;;;;;;5078026;28;20240;-82
2022/07/04 00:57:15;;;;;;;9.77;9.48;;;20.70;99.90;;;;;;5077963;28;20290;-82
2022/07/04 00:59:42;;;;;;;9.93;9.63;;;20.80;99.90;;;;;;5078863;28;20297;-81
2022/07/04 01:02:10;;;;;;;9.93;9.63;;;20.70;99.90;;;;;;5078465;28;20226;-81
2022/07/04 01:04:37;;;;;;;10.30;10.00;;;20.70;99.90;;;;;;5078131;28;20281;-81
2022/07/04 01:07:06;;;;;;;10.10;9.80;;;20.70;99.90;;;;;;5078529;28;20254;-82
2022/07/04 01:09:36;;;;;;;10.00;9.70;;;20.70;99.90;;;;;;5079485;28;20307;-81
2022/07/04 01:12:05;;;;;;;10.18;9.88;;;20.60;99.90;;;;;;5079136;28;20317;-81
2022/07/04 01:14:32;;;;;;;10.05;9.75;;;20.60;99.90;;;;;;5078947;28;20298;-82
2022/07/04 01:17:00;;;;;;;10.00;9.70;;;20.60;99.90;;;;;;5077838;28;20266;-81
2022/07/04 01:19:27;;;;;;;9.98;9.68;;;20.60;99.90;;;;;;5078945;28;20244;-81
2022/07/04 01:21:56;;;;;;;9.98;9.68;;;20.60;99.90;;;;;;5094036;28;20267;-81
2022/07/04 01:24:24;;;;;;;9.80;9.50;;;20.60;99.90;;;;;;5097335;28;20325;-82
2022/07/04 01:26:51;;;;;;;9.65;9.35;;;20.50;99.90;;;;;;5084162;28;20337;-81
2022/07/04 01:29:20;;;;;;;9.90;9.60;;;20.50;99.90;;;;;;5079821;28;20238;-81
2022/07/04 01:31:47;;;;;;;9.63;9.32;;;20.40;99.90;;;;;;5079824;28;20290;-81
2022/07/04 01:34:15;;;;;;;9.70;9.40;;;20.40;99.90;;;;;;5083363;28;20763;-81
2022/07/04 01:36:42;;;;;;;9.82;9.52;;;20.30;99.90;;;;;;5080255;28;20232;-82
2022/07/04 01:39:11;;;;;;;10.10;9.80;;;20.20;99.90;;;;;;5080772;28;20303;-80
2022/07/04 01:41:39;;;;;;;9.90;9.60;;;20.10;99.90;;;;;;5081994;28;20308;-81
2022/07/04 01:44:06;;;;;;;10.05;9.75;;;20.10;99.90;;;;;;5081218;28;20254;-80
2022/07/04 01:46:44;;;;;;;9.73;9.43;;;20.10;99.90;;;;;;5080766;28;20341;-81
2022/07/04 01:49:12;;;;;;;9.80;9.50;;;20.10;99.90;;;;;;5081092;28;20304;-80
2022/07/04 01:51:58;;;;;;;10.10;9.80;;;20.00;99.90;;;;;;5081637;28;20281;-81
2022/07/04 01:55:02;;;;;;;9.90;9.60;;;20.00;99.90;;;;;;5080453;28;20230;-81
2022/07/04 01:57:29;;;;;;;9.82;9.52;;;19.90;99.90;;;;;;5078744;28;20283;-79
2022/07/04 02:02:41;;;;;;;9.73;9.43;;;19.90;99.90;;;;;;5078809;28;20226;-79
2022/07/04 02:05:10;;;;;;;10.00;9.70;;;19.80;99.90;;;;;;5077981;28;20236;-79
2022/07/04 02:07:37;;;;;;;9.73;9.43;;;19.80;99.90;;;;;;5079023;28;20265;-79
2022/07/04 02:10:08;;;;;;;9.98;9.68;;;19.90;99.90;;;;;;5079234;28;20236;-79
2022/07/04 02:15:20;;;;;;;9.90;9.60;;;19.80;99.90;;;;;;5080321;28;20226;-79
2022/07/04 02:17:47;;;;;;;9.73;9.43;;;19.80;99.90;;;;;;5078951;28;20305;-79
2022/07/04 02:20:15;;;;;;;9.70;9.40;;;19.80;99.90;;;;;;5079012;28;20230;-79
2022/07/04 02:22:43;;;;;;;9.80;9.50;;;19.80;99.90;;;;;;5078034;28;20213;-79
2022/07/04 02:25:12;;;;;;;9.82;9.52;;;19.80;99.90;;;;;;5078083;28;20321;-79
2022/07/04 02:27:39;;;;;;;9.60;9.30;;;19.70;99.90;;;;;;5078569;28;20319;-79
2022/07/04 02:30:08;;;;;;;9.65;9.35;;;19.70;99.90;;;;;;5078011;28;20272;-78
2022/07/04 02:32:36;;;;;;;9.40;9.10;;;19.70;99.90;;;;;;5078095;28;20285;-79
2022/07/04 02:35:04;;;;;;;9.32;9.02;;;19.70;99.90;;;;;;5078128;28;20348;-79
2022/07/04 02:37:32;;;;;;;9.50;9.20;;;19.60;99.90;;;;;;5078011;28;20371;-79
2022/07/04 02:39:59;;;;;;;9.38;9.07;;;19.60;99.90;;;;;;5077698;28;20236;-79
2022/07/04 02:42:32;;;;;;;9.30;9.00;;;19.60;99.90;;;;;;5078371;28;20305;-79
2022/07/04 02:45:00;;;;;;;9.32;9.02;;;19.50;99.90;;;;;;5078628;28;20226;-79
2022/07/04 02:47:28;;;;;;;9.50;9.20;;;19.50;99.90;;;;;;5078640;28;20241;-79
2022/07/04 02:49:56;;;;;;;9.50;9.20;;;19.50;99.90;;;;;;5079015;28;21076;-79
2022/07/04 02:52:24;;;;;;;9.73;9.43;;;19.50;99.90;;;;;;5078834;28;20232;-79
2022/07/04 02:54:52;;;;;;;9.70;9.40;;;19.40;99.90;;;;;;5084037;28;20230;-79
2022/07/04 02:57:20;;;;;;;10.18;9.88;;;19.50;99.90;;;;;;5094465;28;20265;-77
2022/07/04 02:59:48;;;;;;;10.00;9.70;;;19.30;99.90;;;;;;5094544;28;20229;-78
2022/07/04 03:02:16;;;;;;;10.00;9.70;;;19.20;99.90;;;;;;5085703;28;20240;-79
2022/07/04 03:04:44;;;;;;;10.20;9.90;;;19.10;99.90;;;;;;5085597;28;20314;-79
2022/07/04 03:07:11;;;;;;;10.30;10.00;;;19.00;99.90;;;;;;5079550;28;20337;-79
2022/07/04 03:09:39;;;;;;;10.00;9.70;;;19.00;99.90;;;;;;5079283;28;20232;-79
2022/07/04 03:12:08;;;;;;;10.15;9.85;;;19.00;99.90;;;;;;5079273;28;20253;-79
2022/07/04 03:14:36;;;;;;;9.80;9.50;;;19.10;99.90;;;;;;5078216;28;20225;-79
2022/07/04 03:17:05;;;;;;;9.93;9.63;;;19.10;99.90;;;;;;5078386;28;20234;-79
2022/07/04 03:19:32;;;;;;;10.20;9.90;;;19.20;99.90;;;;;;5079316;28;20245;-80
2022/07/04 03:21:59;;;;;;;10.20;9.90;;;19.10;99.90;;;;;;5087445;28;20230;-79
2022/07/04 03:24:27;;;;;;;10.15;9.85;;;19.20;99.90;;;;;;5078860;28;20285;-80
2022/07/04 03:26:54;;;;;;;10.15;9.85;;;19.10;99.90;;;;;;5078526;28;20226;-79
2022/07/04 03:29:22;;;;;;;10.07;9.77;;;19.00;99.90;;;;;;5080601;28;20234;-80
2022/07/04 03:31:52;;;;;;;9.90;9.60;;;19.00;99.90;;;;;;5079400;28;20274;-80
2022/07/04 03:34:24;;;;;;;9.93;9.63;;;19.10;99.90;;;;;;5079209;28;20234;-79
2022/07/04 03:37:01;;;;;;;9.88;9.57;;;19.10;99.90;;;;;;5079393;28;20258;-80
2022/07/04 03:39:29;;;;;;;10.23;9.93;;;19.20;99.90;;;;;;5079021;28;20305;-79
2022/07/04 03:41:56;;;;;;;9.90;9.60;;;19.20;99.90;;;;;;5078274;28;20232;-80
2022/07/04 03:44:24;;;;;;;10.38;10.07;;;19.20;99.90;;;;;;5078160;28;20234;-79
2022/07/04 03:46:52;;;;;;;10.00;9.70;;;19.20;99.90;;;;;;5078218;28;20505;-80
2022/07/04 03:49:20;;;;;;;10.07;9.77;;;19.20;99.90;;;;;;5078481;28;20237;-79
2022/07/04 03:51:48;;;;;;;10.00;9.70;;;19.20;99.90;;;;;;5080514;28;20252;-79
2022/07/04 03:54:15;;;;;;;9.95;9.65;;;19.20;99.90;;;;;;5081431;28;20313;-79
2022/07/04 03:56:43;;;;;;;10.02;9.73;;;19.20;99.90;;;;;;5081038;28;20222;-79
2022/07/04 03:59:10;;;;;;;10.00;9.70;;;19.20;99.90;;;;;;5080987;28;20230;-80
2022/07/04 04:01:38;;;;;;;9.90;9.60;;;19.20;99.90;;;;;;5079951;28;20226;-79
2022/07/04 04:06:52;;;;;;;10.15;9.85;;;19.30;99.90;;;;;;5081027;28;20281;-79
2022/07/04 04:09:20;;;;;;;10.38;10.07;;;19.30;99.90;;;;;;5081603;28;20237;-79
2022/07/04 04:11:48;;;;;;;10.30;10.00;;;19.30;99.90;;;;;;5081629;28;20244;-80
2022/07/04 04:14:15;;;;;;;10.10;9.80;;;19.20;99.90;;;;;;5081439;28;20368;-78
2022/07/04 04:16:43;;;;;;;10.10;9.80;;;19.20;99.90;;;;;;5080698;28;20240;-79
2022/07/04 04:19:11;;;;;;;10.05;9.75;;;19.20;99.90;;;;;;5080343;28;20247;-80
2022/07/04 04:21:38;;;;;;;10.10;9.80;;;19.20;99.90;;;;;;5084110;28;20273;-79
2022/07/04 04:24:08;;;;;;;10.00;9.70;;;19.20;99.90;;;;;;5080697;28;20333;-79
2022/07/04 04:26:35;;;;;;;10.20;9.90;;;19.10;99.90;;;;;;5078928;28;20341;-79
2022/07/04 04:29:03;;;;;;;10.35;10.05;;;19.10;99.90;;;;;;5079065;28;20285;-79
2022/07/04 04:31:30;;;;;;;9.93;9.63;;;19.10;99.90;;;;;;5079234;28;20249;-79
2022/07/04 04:33:58;;;;;;;10.10;9.80;;;19.10;99.90;;;;;;5079702;28;20230;-80
2022/07/04 04:36:26;;;;;;;10.30;10.00;;;19.00;99.90;;;;;;5079798;28;20325;-79
2022/07/04 04:38:54;;;;;;;10.13;9.82;;;19.00;99.90;;;;;;5079396;28;20234;-79
2022/07/04 04:41:23;;;;;;;10.15;9.85;;;19.00;99.90;;;;;;5080560;28;20257;-79
2022/07/04 04:43:50;;;;;;;10.23;9.93;;;19.00;99.90;;;;;;5080135;28;20229;-79
2022/07/04 04:46:18;;;;;;;10.30;10.00;;;18.90;99.90;;;;;;5080367;28;20317;-79
2022/07/04 04:48:45;;;;;;;10.20;9.90;;;18.90;99.90;;;;;;5079379;28;20294;-79
2022/07/04 04:51:13;;;;;;;10.20;9.90;;;19.10;99.90;;;;;;5079776;28;20225;-79
2022/07/04 04:53:40;;;;;;;10.40;10.10;;;19.10;99.90;;;;;;5079911;28;20226;-79
2022/07/04 04:56:08;;;;;;;10.50;10.20;;;19.10;99.90;;;;;;5079890;28;20238;-79
2022/07/04 04:58:37;;;;;;;10.18;9.88;;;19.00;99.90;;;;;;5079311;28;20245;-79
2022/07/04 05:01:04;;;;;;;10.02;9.73;;;19.10;99.90;;;;;;5087142;28;20397;-77
2022/07/04 05:03:32;;;;;;;10.00;9.70;;;19.10;99.90;;;;;;5099510;27;20214;-77
2022/07/04 05:05:59;;;;;;;10.20;9.90;;;19.10;99.90;;;;;;5100456;27;20238;-77
2022/07/04 05:08:27;;;;;;;10.40;10.10;;;19.10;99.90;;;;;;5100269;27;20226;-78
2022/07/04 05:10:55;;;;;;;10.20;9.90;;;19.10;99.90;;;;;;5100207;27;20268;-79
2022/07/04 05:13:23;;;;;;;10.38;10.07;;;19.00;99.90;;;;;;5084413;28;20234;-80
2022/07/04 05:15:52;;;;;;;10.30;10.00;;;19.10;99.90;;;;;;5080139;28;20284;-80
2022/07/04 05:18:19;;;;;;;10.18;9.88;;;19.10;99.90;;;;;;5104892;22;20421;-81
2022/07/04 05:20:47;;;;;;;10.27;9.98;;;19.20;99.90;;;;;;5087216;28;20230;-81
2022/07/04 05:23:14;;;;;;;10.10;9.80;;;19.30;99.90;;;;;;5085127;28;20226;-82
2022/07/04 05:25:42;;;;;;;10.48;10.18;;;19.30;99.90;;;;;;5083237;28;20238;-83
2022/07/04 05:28:09;;;;;;;10.40;10.10;;;19.40;99.90;;;;;;5082635;28;20290;-82
2022/07/04 05:30:37;;;;;;;10.18;9.88;;;19.40;99.90;;;;;;5082117;28;20222;-83
2022/07/04 05:33:10;;;;;;;10.18;9.88;;;19.50;99.90;;;;;;5083027;28;20234;-82
2022/07/04 05:35:37;;;;;;;10.40;10.10;;;19.60;99.90;;;;;;5082277;28;20230;-82
2022/07/04 05:38:05;;;;;;;10.27;9.98;;;19.70;99.90;;;;;;5081365;28;20281;-82
2022/07/04 05:40:33;;;;;;;10.07;9.77;;;19.70;99.90;;;;;;5082558;28;20226;-83
2022/07/04 05:43:03;;;;;;;10.30;10.00;;;19.70;99.90;;;;;;5082717;28;20291;-82
2022/07/04 05:45:31;;;;;;;10.20;9.90;;;19.80;99.90;;;;;;5081680;28;20324;-82
2022/07/04 05:47:59;;;;;;;10.20;9.90;;;19.90;99.90;;;;;;5082522;28;20292;-82
2022/07/04 05:50:28;;;;;;;10.10;9.80;;;19.90;99.90;;;;;;5082700;28;20230;-82
2022/07/04 05:52:56;;;;;;;10.20;9.90;;;19.90;99.90;;;;;;5083861;28;20238;-82
2022/07/04 05:55:24;;;;;;;10.30;10.00;;;19.80;99.90;;;;;;5083155;28;20234;-82
2022/07/04 05:57:53;;;;;;;10.13;9.82;;;19.80;99.90;;;;;;5088260;28;20227;-81
2022/07/04 06:00:20;;;;;;;10.15;9.85;;;19.90;99.90;;;;;;5085379;28;20214;-82
2022/07/04 06:02:48;;;;;;;10.30;10.00;;;19.80;99.90;;;;;;5084645;28;20329;-82
2022/07/04 06:05:18;;;;;;;10.68;10.38;;;19.70;99.90;;;;;;5083905;28;20691;-82
2022/07/04 06:07:48;;;;;;;10.50;10.20;;;19.80;99.90;;;;;;5083129;28;20273;-82
2022/07/04 06:10:18;;;;;;;10.40;10.10;;;19.80;99.90;;;;;;5082359;28;20234;-82
2022/07/04 06:12:45;;;;;;;10.60;10.30;;;19.90;99.90;;;;;;5082736;28;20257;-82
2022/07/04 06:15:13;;;;;;;10.73;10.43;;;20.10;99.90;;;;;;5081614;28;20245;-82
2022/07/04 06:17:40;;;;;;;10.73;10.43;;;20.10;99.90;;;;;;5082152;28;20233;-82
2022/07/04 06:20:10;;;;;;;10.80;10.50;;;20.20;99.90;;;;;;5082775;28;20291;-82
2022/07/04 06:22:48;;;;;;;10.75;10.45;;;20.40;99.90;;;;;;5083104;28;20253;-82
2022/07/04 06:25:18;;;;;;;10.70;10.40;;;20.60;99.90;;;;;;5080997;28;20234;-82
2022/07/04 06:27:49;;;;;;;10.60;10.30;;;20.70;99.90;;;;;;5080999;28;20333;-82
2022/07/04 06:30:17;;;;;;;10.63;10.32;;;20.70;99.90;;;;;;5081813;28;20309;-82
2022/07/04 06:32:50;;;;;;;10.27;9.98;;;20.60;99.90;;;;;;5081330;28;20780;-82
2022/07/04 06:38:05;;;;;;;10.70;10.40;;;20.60;99.90;;;;;;5066620;28;20313;-82
2022/07/04 06:40:33;;;;;;;10.35;10.05;;;20.70;99.90;;;;;;5080830;28;20241;-82
2022/07/04 06:43:01;;;;;;;10.45;10.15;;;20.80;99.90;;;;;;5080972;28;20226;-82
2022/07/04 06:45:29;;;;;;;10.50;10.20;;;20.90;99.90;;;;;;5081152;28;20297;-82
2022/07/04 06:47:56;;;;;;;10.50;10.20;;;21.00;99.90;;;;;;5085859;28;20257;-82
2022/07/04 06:50:24;;;;;;;10.55;10.25;;;21.00;99.90;;;;;;5091081;28;20222;-82
2022/07/04 06:52:52;;;;;;;10.40;10.10;;;21.00;99.90;;;;;;5082387;28;20230;-83
2022/07/04 06:55:21;;;;;;;10.50;10.20;;;21.20;99.90;;;;;;5080961;28;20257;-82
2022/07/04 06:57:48;;;;;;;10.20;9.90;;;21.40;99.90;;;;;;5080407;28;20312;-81
2022/07/04 07:00:19;;;;;;;10.07;9.77;;;21.50;99.90;;;;;;5080245;28;20249;-82
2022/07/04 07:02:46;;;;;;;10.30;10.00;;;21.60;99.90;;;;;;5081274;28;20258;-82
2022/07/04 07:05:14;;;;;;;10.10;9.80;;;21.80;99.90;;;;;;5079805;28;20285;-82
2022/07/04 07:07:41;;;;;;;10.32;10.02;;;21.90;99.90;;;;;;5079939;28;20258;-82
2022/07/04 07:10:10;;;;;;;10.13;9.82;;;21.90;99.90;;;;;;5079982;28;20222;-82
2022/07/04 07:12:39;;;;;;;10.20;9.90;;;22.00;99.90;;;;;;5079808;28;20240;-82
2022/07/04 07:15:08;;;;;;;10.90;10.60;;;22.00;99.90;;;;;;5079669;28;20288;-82
2022/07/04 07:17:36;;;;;;;10.60;10.30;;;22.20;99.90;;;;;;5079683;28;20238;-81
2022/07/04 07:20:04;;;;;;;10.60;10.30;;;22.30;99.90;;;;;;5080937;28;20230;-82
2022/07/04 07:22:32;;;;;;;10.48;10.18;;;22.20;99.90;;;;;;5085231;28;20293;-82
2022/07/04 07:24:59;;;;;;;10.50;10.20;;;22.30;99.90;;;;;;5093274;28;20241;-82
2022/07/04 07:27:27;;;;;;;10.70;10.40;;;22.30;99.90;;;;;;5094193;28;20269;-81
2022/07/04 07:29:56;;;;;;;10.55;10.25;;;22.50;99.90;;;;;;5082625;28;20230;-82
2022/07/04 07:32:24;;;;;;;10.90;10.60;;;22.50;99.90;;;;;;5081358;28;20257;-82
2022/07/04 07:34:51;;;;;;;10.52;10.23;;;22.60;99.90;;;;;;5081014;28;20234;-82
2022/07/04 07:37:21;;;;;;;10.50;10.20;;;22.50;99.90;;;;;;5080542;28;20230;-83
2022/07/04 07:39:49;;;;;;;10.18;9.88;;;22.50;99.90;;;;;;5080118;28;20222;-82
2022/07/04 07:42:17;;;;;;;10.25;9.95;;;22.70;99.90;;;;;;5080154;28;20233;-81
2022/07/04 07:44:46;;;;;;;10.25;9.95;;;22.80;99.90;;;;;;5079956;28;20257;-82
2022/07/04 07:47:15;;;;;;;10.63;10.32;;;23.00;99.90;;;;;;5080304;28;20287;-82
2022/07/04 07:49:52;;;;;;;10.57;10.27;;;23.20;99.90;;;;;;5080240;28;20298;-82
2022/07/04 07:52:19;;;;;;;10.60;10.30;;;23.40;99.90;;;;;;5079968;28;20246;-82
2022/07/04 07:54:47;;;;;;;10.65;10.35;;;23.50;99.90;;;;;;5079966;28;20234;-82
2022/07/04 07:57:14;;;;;;;10.75;10.45;;;23.60;99.90;;;;;;5079758;28;20286;-82
2022/07/04 07:59:42;;;;;;;10.90;10.60;;;23.70;99.90;;;;;;5079268;28;20257;-82
2022/07/04 08:02:10;;;;;;;10.73;10.43;;;23.80;99.90;;;;;;5080379;28;20241;-81
2022/07/04 08:04:38;;;;;;;10.98;10.68;;;23.90;99.90;;;;;;5078604;28;20329;-82
2022/07/04 08:07:08;;;;;;;11.00;10.70;;;24.00;99.90;;;;;;5079424;28;20235;-82
2022/07/04 08:09:36;;;;;;;11.10;10.80;;;24.00;99.90;;;;;;5079302;28;20316;-82
2022/07/04 08:12:08;;;;;;;10.98;10.68;;;23.90;99.90;;;;;;5079603;28;20332;-82
2022/07/04 08:14:36;;;;;;;10.93;10.63;;;24.00;99.90;;;;;;5079774;28;20229;-82
2022/07/04 08:17:06;;;;;;;10.98;10.68;;;24.10;99.90;;;;;;5080323;28;20283;-82
2022/07/04 08:19:33;;;;;;;11.15;10.85;;;24.20;99.90;;;;;;5079777;28;20231;-82
2022/07/04 08:22:02;;;;;;;10.98;10.68;;;24.20;99.90;;;;;;5079654;28;20241;-81
2022/07/04 08:24:30;;;;;;;11.25;10.95;;;24.30;99.90;;;;;;5079271;28;20297;-81
2022/07/04 08:27:00;;;;;;;10.30;10.00;;;24.30;99.90;;;;;;5079779;28;20250;-81
2022/07/04 08:29:31;;;;;;;10.55;10.25;;;24.40;99.90;;;;;;5081204;28;20214;-82
2022/07/04 08:31:59;;;;;;;10.50;10.20;;;24.60;99.90;;;;;;5090797;28;20230;-81
2022/07/04 08:34:29;;;;;;;10.55;10.25;;;24.80;99.90;;;;;;5090133;28;20230;-82
2022/07/04 08:36:57;;;;;;;10.60;10.30;;;24.90;99.90;;;;;;5082156;28;20244;-82
2022/07/04 08:39:28;;;;;;;10.70;10.40;;;25.10;99.90;;;;;;5087025;28;20258;-82
2022/07/04 08:42:03;;;;;;;11.20;10.90;;;24.90;99.90;;;;;;5086989;28;20230;-82
2022/07/04 08:44:31;;;;;;;11.18;10.88;;;24.70;99.90;;;;;;5085354;28;20233;-82
2022/07/04 08:46:59;;;;;;;11.02;10.73;;;24.60;99.90;;;;;;5083856;28;20273;-81
2022/07/04 08:49:37;;;;;;;11.60;11.20;;;24.50;99.90;;;;;;5083099;28;20222;-81
2022/07/04 08:52:11;;;;;;;11.10;10.80;;;24.40;99.90;;;;;;5084256;28;20254;-82
2022/07/04 09:00:11;;;;;;;11.00;10.70;;;25.00;99.90;;;;;;5083693;28;20218;-82
2022/07/04 09:02:39;;;;;;;11.02;10.73;;;25.30;99.90;;;;;;5083235;28;20257;-82
2022/07/04 09:05:11;;;;;;;11.10;10.80;;;25.40;99.90;;;;;;5084982;28;20226;-82
2022/07/04 09:07:40;;;;;;;11.20;10.90;;;25.50;99.90;;;;;;5095164;28;20228;-82
2022/07/04 09:10:09;;;;;;;11.20;10.90;;;25.40;99.90;;;;;;5086752;28;20237;-82
2022/07/04 09:12:37;;;;;;;11.00;10.70;;;25.50;99.90;;;;;;5087443;28;20234;-82
2022/07/04 09:15:06;;;;;;;11.00;10.70;;;25.50;99.90;;;;;;5087674;28;20234;-82
2022/07/04 09:17:35;;;;;;;10.85;10.55;;;25.40;99.90;;;;;;5084285;28;20221;-82
2022/07/04 09:20:14;;;;;;;11.30;11.00;;;25.50;99.90;;;;;;5083824;28;20300;-83
2022/07/04 09:22:42;;;;;;;11.48;11.07;;;25.60;99.90;;;;;;5082879;28;20238;-82
2022/07/04 09:25:14;;;;;;;11.32;11.00;;;25.70;99.90;;;;;;5083233;28;20294;-82
2022/07/04 09:27:44;;;;;;;11.18;10.88;;;25.70;99.90;;;;;;5083210;28;20341;-82
2022/07/04 09:30:13;;;;;;;11.20;10.90;;;26.00;99.90;;;;;;5082786;28;20337;-82
2022/07/04 09:32:43;;;;;;;11.25;10.95;;;25.90;99.90;;;;;;5082489;28;20236;-82
2022/07/04 09:35:13;;;;;;;11.60;11.20;;;25.80;99.90;;;;;;5082410;28;20257;-82
2022/07/04 09:37:45;;;;;;;11.68;11.27;;;26.00;99.90;;;;;;5081912;28;20230;-82
2022/07/04 09:40:26;;;;;;;11.80;11.40;;;26.30;99.90;;;;;;5082289;28;20231;-82
2022/07/04 09:42:54;;;;;;;11.50;11.10;;;26.40;99.90;;;;;;5081929;28;20337;-82
2022/07/04 09:45:24;;;;;;;11.50;11.10;;;26.40;99.90;;;;;;5081379;28;20232;-82
2022/07/04 09:47:57;;;;;;;11.45;11.05;;;26.40;99.90;;;;;;5081447;28;20233;-82
2022/07/04 09:50:27;;;;;;;11.20;10.90;;;26.40;99.90;;;;;;5081361;28;20283;-82
2022/07/04 09:52:57;;;;;;;11.38;10.98;;;26.00;99.90;;;;;;5082042;28;20230;-82
2022/07/04 09:55:29;;;;;;;11.55;11.15;;;26.30;99.90;;;;;;5081935;28;20254;-82
2022/07/04 09:57:59;;;;;;;11.05;10.75;;;26.60;99.90;;;;;;5081932;28;20860;-82
2022/07/04 10:00:28;;;;;;;11.02;10.73;;;26.80;99.90;;;;;;5081312;28;20230;-82
2022/07/04 10:02:58;;;;;;;11.50;11.10;;;26.70;99.90;;;;;;5081913;28;20245;-82
2022/07/04 10:05:29;;;;;;;11.30;11.00;;;26.40;99.90;;;;;;5081221;28;20321;-82
2022/07/04 10:07:59;;;;;;;11.60;11.20;;;26.40;99.90;;;;;;5092573;28;20264;-82
2022/07/04 10:10:33;;;;;;;11.90;11.50;;;26.30;99.90;;;;;;5087183;28;20286;-82
2022/07/04 10:13:05;;;;;;;11.70;11.30;;;26.60;99.90;;;;;;5085321;28;20242;-83
2022/07/04 10:15:35;;;;;;;11.75;11.35;;;26.90;99.90;;;;;;5083742;28;20325;-83
2022/07/04 10:18:03;;;;;;;11.90;11.50;;;27.00;99.90;;;;;;5081051;28;20296;-82
2022/07/04 10:20:33;;;;;;;11.82;11.43;;;26.90;99.90;;;;;;5082565;28;20226;-82
2022/07/04 10:23:03;;;;;;;11.80;11.40;;;26.80;99.90;;;;;;5081555;28;20288;-83
2022/07/04 10:25:32;;;;;;;11.88;11.48;;;26.70;99.90;;;;;;5081843;28;20234;-82
2022/07/04 10:27:59;;;;;;;11.77;11.38;;;26.90;99.90;;;;;;5081370;28;20281;-82
2022/07/04 10:30:31;;;;;;;12.07;11.68;;;26.80;99.90;;;;;;5081245;28;20248;-82
2022/07/04 10:33:02;;;;;;;12.00;11.60;;;27.10;99.90;;;;;;5081554;28;20225;-82
2022/07/04 10:35:54;;;;;;;11.90;11.50;;;27.20;99.90;;;;;;5081039;28;20240;-83
2022/07/04 10:38:24;;;;;;;11.77;11.38;;;27.40;99.90;;;;;;5081264;28;20241;-83
2022/07/04 10:40:56;;;;;;;11.73;11.32;;;27.50;99.90;;;;;;5081164;28;20274;-82
2022/07/04 10:44:01;;;;;;;11.77;11.38;;;27.50;99.90;;;;;;5081901;28;20233;-83
2022/07/04 10:46:47;;;;;;;11.55;11.15;;;27.30;99.90;;;;;;5081598;28;20309;-82
2022/07/04 10:49:27;;;;;;;11.35;11.05;;;27.50;99.90;;;;;;5081003;28;20332;-82
2022/07/04 10:52:00;;;;;;;11.57;11.18;;;28.00;99.90;;;;;;5081887;28;20233;-82
2022/07/04 10:54:32;;;;;;;11.80;11.40;;;28.40;99.90;;;;;;5080951;28;20230;-83
2022/07/04 10:57:14;;;;;;;11.70;11.30;;;28.50;99.90;;;;;;5080802;28;20234;-83
2022/07/04 10:59:44;;;;;;;11.50;11.10;;;28.70;99.90;;;;;;5080808;28;20244;-82
2022/07/04 11:02:30;;;;;;;11.55;11.15;;;28.80;99.90;;;;;;5080503;28;20268;-82
2022/07/04 11:05:03;;;;;;;11.70;11.30;;;28.90;99.90;;;;;;5082775;28;20230;-83
2022/07/04 11:08:06;;;;;;;11.90;11.50;;;28.90;99.90;;;;;;5082120;28;20240;-83
2022/07/04 11:10:38;;;;;;;11.65;11.25;;;28.70;99.90;;;;;;5081148;28;20237;-82
2022/07/04 11:13:18;;;;;;;11.90;11.50;;;28.40;99.90;;;;;;5081238;28;20329;-82
2022/07/04 11:16:07;;;;;;;11.77;11.38;;;28.30;99.90;;;;;;5080781;28;20618;-82
2022/07/04 11:18:42;;;;;;;11.55;11.15;;;28.30;99.90;;;;;;5101158;22;20336;-81
2022/07/04 11:21:24;;;;;;;11.70;11.30;;;28.40;99.90;;;;;;5079272;28;20244;-80
2022/07/04 11:23:58;;;;;;;11.60;11.20;;;28.70;99.90;;;;;;5078552;28;20345;-80
2022/07/04 11:26:29;;;;;;;11.50;11.10;;;29.00;99.90;;;;;;5079277;28;20264;-80
2022/07/04 11:28:59;;;;;;;11.80;11.40;;;29.40;99.90;;;;;;5078283;28;20241;-80
2022/07/04 11:31:46;;;;;;;12.10;11.70;;;29.90;99.90;;;;;;5078859;28;20226;-81
2022/07/04 11:34:14;;;;;;;11.65;11.25;;;30.20;99.90;;;;;;5077924;28;20309;-80
2022/07/04 11:36:43;;;;;;;12.10;11.70;;;30.40;99.90;;;;;;5076498;28;20222;-80
2022/07/04 11:39:14;;;;;;;12.00;11.60;;;30.50;99.90;;;;;;5075978;28;20234;-80
2022/07/04 11:47:21;;;;;;;11.68;11.27;;;30.90;99.90;;;;;;5077414;28;20218;-80
2022/07/04 11:49:51;;;;;;;11.48;11.07;;;31.20;99.90;;;;;;5090819;28;20272;-81
2022/07/04 11:52:21;;;;;;;11.80;11.40;;;31.40;99.90;;;;;;5091742;28;20321;-80
2022/07/04 11:54:50;;;;;;;11.50;11.10;;;31.50;99.90;;;;;;5088862;28;20240;-81
2022/07/04 11:57:23;;;;;;;11.10;10.80;;;31.30;99.90;;;;;;5081274;28;20260;-81
2022/07/04 11:59:58;;;;;;;11.63;11.23;;;31.30;99.90;;;;;;5080811;28;20241;-81
2022/07/04 12:02:27;;;;;;;11.27;10.98;;;31.30;99.90;;;;;;5080986;28;20234;-81
2022/07/04 12:04:57;;;;;;;11.32;10.95;;;31.20;99.90;;;;;;5081104;28;20230;-81
2022/07/04 12:07:26;;;;;;;11.63;11.23;;;31.00;99.90;;;;;;5080155;28;20233;-81
2022/07/04 12:09:57;;;;;;;11.55;11.15;;;31.00;99.90;;;;;;5080490;28;20242;-81
2022/07/04 12:12:25;;;;;;;11.70;11.30;;;31.20;99.90;;;;;;5082111;28;20232;-82
2022/07/04 12:15:06;;;;;;;11.65;11.25;;;31.40;99.90;;;;;;5083167;28;20225;-81
2022/07/04 12:17:36;;;;;;;11.50;11.10;;;31.50;99.90;;;;;;5083919;28;20245;-81
2022/07/04 12:20:13;;;;;;;11.20;10.90;;;31.50;99.90;;;;;;5082402;28;20252;-82
2022/07/04 12:22:43;;;;;;;11.40;11.10;;;31.20;99.90;;;;;;5082939;28;20229;-82
2022/07/04 12:25:24;;;;;;;11.68;11.27;;;31.00;99.90;;;;;;5083762;28;20238;-82
2022/07/04 12:27:58;;;;;;;11.40;11.07;;;30.20;99.90;;;;;;5084063;28;20221;-81
2022/07/04 12:30:29;;;;;;;11.45;11.10;;;30.70;99.90;;;;;;5083341;28;20244;-81
2022/07/04 12:33:00;;;;;;;11.15;10.85;;;30.80;99.90;;;;;;5083291;28;20231;-82
2022/07/04 12:35:41;;;;;;;11.32;11.02;;;31.20;99.90;;;;;;5082180;28;20226;-82
2022/07/04 12:38:12;;;;;;;11.30;11.00;;;31.80;99.90;;;;;;5082498;28;20226;-80
2022/07/04 12:40:56;;;;;;;11.10;10.80;;;32.20;99.90;;;;;;5083130;28;20313;-79
2022/07/04 12:43:24;;;;;;;11.35;11.05;;;32.40;99.90;;;;;;5082894;28;20233;-79
2022/07/04 12:45:55;;;;;;;11.70;11.30;;;32.40;99.90;;;;;;5081969;28;20234;-80
2022/07/04 12:48:29;;;;;;;11.23;10.93;;;32.30;99.90;;;;;;5082722;28;20270;-80
2022/07/04 12:51:14;;;;;;;11.52;11.13;;;32.50;99.90;;;;;;5083234;28;20242;-80
2022/07/04 12:53:46;;;;;;;11.40;11.10;;;32.90;99.90;;;;;;5083106;28;20701;-80
2022/07/04 12:56:31;;;;;;;11.70;11.30;;;32.50;99.90;;;;;;5082011;28;20226;-80
2022/07/04 12:58:59;;;;;;;11.68;11.27;;;32.30;99.90;;;;;;5082312;28;20254;-80
2022/07/04 13:01:28;;;;;;;11.77;11.38;;;31.70;99.90;;;;;;5082361;28;20272;-80
2022/07/04 13:03:56;;;;;;;11.57;11.18;;;31.10;99.90;;;;;;5081968;28;20238;-79
2022/07/04 13:06:23;;;;;;;11.70;11.30;;;31.10;99.90;;;;;;5082096;28;20306;-80
2022/07/04 13:08:52;;;;;;;11.52;11.13;;;31.30;99.90;;;;;;5082478;28;20288;-80